sensor_id;sensor_type;location;lat;lon;timestamp;pressure;altitude;pressure_sealevel;temperature;humidity
8051;BME280;4068;42.158;24.732;2024-03-23T00:55:54;99844.00;;;3.14;100.00
8051;BME280;4068;42.158;24.732;2024-03-23T00:58:19;99815.72;;;3.02;100.00
8051;BME280;4068;42.158;24.732;2024-03-23T01:00:45;99843.50;;;3.25;100.00
8051;BME280;4068;42.158;24.732;2024-03-23T01:03:10;99808.38;;;3.10;100.00
8051;BME280;4068;42.158;24.732;2024-03-23T01:05:36;99840.88;;;3.25;100.00
8051;BME280;4068;42.158;24.732;2024-03-23T01:08:01;99831.34;;;3.24;100.00
8051;BME280;4068;42.158;24.732;2024-03-23T01:10:27;99838.84;;;3.32;100.00
8051;BME280;4068;42.158;24.732;2024-03-23T01:12:52;99836.72;;;3.40;100.00
8051;BME280;4068;42.158;24.732;2024-03-23T01:15:18;99830.56;;;3.41;100.00
8051;BME280;4068;42.158;24.732;2024-03-23T01:17:43;99836.16;;;3.52;100.00
8051;BME280;4068;42.158;24.732;2024-03-23T01:20:09;99837.00;;;3.53;100.00
8051;BME280;4068;42.158;24.732;2024-03-23T01:22:35;99832.75;;;3.50;100.00
8051;BME280;4068;42.158;24.732;2024-03-23T01:25:01;99838.28;;;3.44;100.00
8051;BME280;4068;42.158;24.732;2024-03-23T01:27:26;99827.44;;;3.33;100.00
8051;BME280;4068;42.158;24.732;2024-03-23T01:29:52;99838.56;;;3.38;100.00
8051;BME280;4068;42.158;24.732;2024-03-23T01:32:18;99842.03;;;3.38;100.00
8051;BME280;4068;42.158;24.732;2024-03-23T01:34:44;99847.44;;;3.35;100.00
8051;BME280;4068;42.158;24.732;2024-03-23T01:37:09;99844.81;;;3.35;100.00
8051;BME280;4068;42.158;24.732;2024-03-23T01:39:35;99843.25;;;3.31;100.00
8051;BME280;4068;42.158;24.732;2024-03-23T01:42:00;99841.59;;;3.28;100.00
8051;BME280;4068;42.158;24.732;2024-03-23T01:44:26;99828.94;;;3.19;100.00
8051;BME280;4068;42.158;24.732;2024-03-23T01:46:51;99843.47;;;3.26;100.00
8051;BME280;4068;42.158;24.732;2024-03-23T01:49:17;99842.59;;;3.26;100.00
8051;BME280;4068;42.158;24.732;2024-03-23T01:51:43;99840.09;;;3.23;100.00
8051;BME280;4068;42.158;24.732;2024-03-23T01:54:10;99839.66;;;3.13;100.00
8051;BME280;4068;42.158;24.732;2024-03-23T01:56:35;99842.38;;;3.11;100.00
8051;BME280;4068;42.158;24.732;2024-03-23T01:59:05;99839.22;;;3.03;100.00
8051;BME280;4068;42.158;24.732;2024-03-23T02:01:31;99828.78;;;2.83;100.00
8051;BME280;4068;42.158;24.732;2024-03-23T02:03:57;99848.94;;;2.81;100.00
8051;BME280;4068;42.158;24.732;2024-03-23T02:06:24;99835.44;;;2.71;100.00
8051;BME280;4068;42.158;24.732;2024-03-23T02:08:50;99829.81;;;2.59;100.00
8051;BME280;4068;42.158;24.732;2024-03-23T02:11:16;99830.56;;;2.62;100.00
8051;BME280;4068;42.158;24.732;2024-03-23T02:13:41;99837.81;;;2.55;100.00
8051;BME280;4068;42.158;24.732;2024-03-23T02:16:07;99800.44;;;2.31;100.00
8051;BME280;4068;42.158;24.732;2024-03-23T02:18:33;99826.78;;;2.48;100.00
8051;BME280;4068;42.158;24.732;2024-03-23T02:20:58;99838.78;;;2.54;100.00
8051;BME280;4068;42.158;24.732;2024-03-23T02:23:24;99833.69;;;2.49;100.00
8051;BME280;4068;42.158;24.732;2024-03-23T02:25:50;99835.56;;;2.47;100.00
8051;BME280;4068;42.158;24.732;2024-03-23T02:28:15;99836.31;;;2.49;100.00
8051;BME280;4068;42.158;24.732;2024-03-23T02:30:42;99805.38;;;2.38;100.00
8051;BME280;4068;42.158;24.732;2024-03-23T02:33:08;99835.28;;;2.53;100.00
8051;BME280;4068;42.158;24.732;2024-03-23T02:35:33;99832.72;;;2.52;100.00
8051;BME280;4068;42.158;24.732;2024-03-23T02:37:59;99831.88;;;2.51;100.00
8051;BME280;4068;42.158;24.732;2024-03-23T02:40:24;99831.28;;;2.45;100.00
8051;BME280;4068;42.158;24.732;2024-03-23T02:42:51;99835.63;;;2.46;100.00
8051;BME280;4068;42.158;24.732;2024-03-23T02:45:16;99814.22;;;2.36;100.00
8051;BME280;4068;42.158;24.732;2024-03-23T02:47:42;99818.34;;;2.41;100.00
8051;BME280;4068;42.158;24.732;2024-03-23T02:50:08;99829.34;;;2.50;100.00
8051;BME280;4068;42.158;24.732;2024-03-23T02:52:34;99835.56;;;2.47;100.00
8051;BME280;4068;42.158;24.732;2024-03-23T02:55:00;99836.59;;;2.43;100.00
8051;BME280;4068;42.158;24.732;2024-03-23T02:57:27;99826.19;;;2.41;100.00
8051;BME280;4068;42.158;24.732;2024-03-23T02:59:52;99832.13;;;2.45;100.00
8051;BME280;4068;42.158;24.732;2024-03-23T03:02:18;99835.63;;;2.46;100.00
8051;BME280;4068;42.158;24.732;2024-03-23T03:04:43;99835.75;;;2.42;100.00
8051;BME280;4068;42.158;24.732;2024-03-23T03:07:09;99833.00;;;2.46;100.00
8051;BME280;4068;42.158;24.732;2024-03-23T03:09:34;99820.28;;;2.36;100.00
8051;BME280;4068;42.158;24.732;2024-03-23T03:12:01;99835.69;;;2.44;100.00
8051;BME280;4068;42.158;24.732;2024-03-23T03:14:27;99824.47;;;2.40;100.00
8051;BME280;4068;42.158;24.732;2024-03-23T03:16:53;99818.28;;;2.43;100.00
8051;BME280;4068;42.158;24.732;2024-03-23T03:19:19;99827.97;;;2.41;100.00
8051;BME280;4068;42.158;24.732;2024-03-23T03:21:44;99826.84;;;2.47;100.00
8051;BME280;4068;42.158;24.732;2024-03-23T03:24:10;99835.63;;;2.46;100.00
8051;BME280;4068;42.158;24.732;2024-03-23T03:26:35;99824.47;;;2.40;100.00
8051;BME280;4068;42.158;24.732;2024-03-23T03:29:02;99833.19;;;2.41;100.00
8051;BME280;4068;42.158;24.732;2024-03-23T03:31:27;99818.91;;;2.28;100.00
8051;BME280;4068;42.158;24.732;2024-03-23T03:33:53;99825.72;;;2.32;100.00
8051;BME280;4068;42.158;24.732;2024-03-23T03:36:18;99823.31;;;2.27;100.00
8051;BME280;4068;42.158;24.732;2024-03-23T03:38:44;99840.72;;;2.28;100.00
8051;BME280;4068;42.158;24.732;2024-03-23T03:41:10;99839.00;;;2.27;100.00
8051;BME280;4068;42.158;24.732;2024-03-23T03:43:35;99835.91;;;2.38;100.00
8051;BME280;4068;42.158;24.732;2024-03-23T03:46:02;99840.25;;;2.80;100.00
8051;BME280;4068;42.158;24.732;2024-03-23T03:48:28;99820.41;;;3.33;100.00
8051;BME280;4068;42.158;24.732;2024-03-23T03:50:54;99811.56;;;3.36;100.00
8051;BME280;4068;42.158;24.732;2024-03-23T03:53:19;99857.41;;;3.65;100.00
8051;BME280;4068;42.158;24.732;2024-03-23T03:55:45;99826.13;;;3.60;100.00
8051;BME280;4068;42.158;24.732;2024-03-23T03:58:10;99828.41;;;3.68;100.00
8051;BME280;4068;42.158;24.732;2024-03-23T04:00:36;99868.47;;;3.53;100.00
8051;BME280;4068;42.158;24.732;2024-03-23T04:03:02;99874.47;;;3.36;100.00
8051;BME280;4068;42.158;24.732;2024-03-23T04:05:28;99851.06;;;3.12;100.00
8051;BME280;4068;42.158;24.732;2024-03-23T04:07:54;99869.97;;;3.00;100.00
8051;BME280;4068;42.158;24.732;2024-03-23T04:10:20;99878.78;;;2.78;100.00
8051;BME280;4068;42.158;24.732;2024-03-23T04:12:47;99873.38;;;2.61;100.00
8051;BME280;4068;42.158;24.732;2024-03-23T04:15:12;99845.28;;;2.44;100.00
8051;BME280;4068;42.158;24.732;2024-03-23T04:17:38;99872.28;;;2.46;100.00
8051;BME280;4068;42.158;24.732;2024-03-23T04:20:05;99859.63;;;2.35;100.00
8051;BME280;4068;42.158;24.732;2024-03-23T04:22:34;99867.38;;;2.58;100.00
8051;BME280;4068;42.158;24.732;2024-03-23T04:25:00;99871.81;;;2.77;100.00
8051;BME280;4068;42.158;24.732;2024-03-23T04:27:34;99875.28;;;2.78;100.00
8051;BME280;4068;42.158;24.732;2024-03-23T04:30:00;99889.28;;;2.56;100.00
8051;BME280;4068;42.158;24.732;2024-03-23T04:32:31;99856.00;;;2.17;100.00
8051;BME280;4068;42.158;24.732;2024-03-23T04:34:56;99882.09;;;2.18;100.00
8051;BME280;4068;42.158;24.732;2024-03-23T04:37:22;99884.94;;;2.12;100.00
8051;BME280;4068;42.158;24.732;2024-03-23T04:39:48;99892.81;;;2.12;100.00
8051;BME280;4068;42.158;24.732;2024-03-23T04:42:16;99863.31;;;1.86;100.00
8051;BME280;4068;42.158;24.732;2024-03-23T04:44:42;99889.88;;;1.98;100.00
8051;BME280;4068;42.158;24.732;2024-03-23T04:47:08;99893.44;;;1.97;100.00
8051;BME280;4068;42.158;24.732;2024-03-23T04:49:33;99894.22;;;1.99;100.00
8051;BME280;4068;42.158;24.732;2024-03-23T04:52:02;99895.59;;;2.07;100.00
8051;BME280;4068;42.158;24.732;2024-03-23T04:54:28;99896.34;;;2.11;100.00
8051;BME280;4068;42.158;24.732;2024-03-23T04:56:54;99885.97;;;2.08;100.00
8051;BME280;4068;42.158;24.732;2024-03-23T04:59:20;99891.13;;;2.11;100.00
8051;BME280;4068;42.158;24.732;2024-03-23T05:01:45;99890.88;;;2.17;100.00
8051;BME280;4068;42.158;24.732;2024-03-23T05:04:10;99892.44;;;2.21;100.00
8051;BME280;4068;42.158;24.732;2024-03-23T05:06:36;99891.53;;;2.22;100.00
8051;BME280;4068;42.158;24.732;2024-03-23T05:09:01;99883.38;;;2.30;100.00
8051;BME280;4068;42.158;24.732;2024-03-23T05:11:37;99885.78;;;2.35;100.00
8051;BME280;4068;42.158;24.732;2024-03-23T05:14:03;99885.56;;;2.41;100.00
8051;BME280;4068;42.158;24.732;2024-03-23T05:16:29;99884.31;;;2.50;100.00
8051;BME280;4068;42.158;24.732;2024-03-23T05:18:54;99847.41;;;2.35;100.00
8051;BME280;4068;42.158;24.732;2024-03-23T05:21:20;99881.91;;;2.66;100.00
8051;BME280;4068;42.158;24.732;2024-03-23T05:23:46;99881.31;;;2.80;100.00
8051;BME280;4068;42.158;24.732;2024-03-23T05:26:11;99881.63;;;2.92;100.00
8051;BME280;4068;42.158;24.732;2024-03-23T05:28:37;99883.00;;;3.01;100.00
8051;BME280;4068;42.158;24.732;2024-03-23T05:31:02;99883.59;;;3.08;100.00
8051;BME280;4068;42.158;24.732;2024-03-23T05:33:28;99883.59;;;3.08;100.00
8051;BME280;4068;42.158;24.732;2024-03-23T05:35:58;99882.19;;;3.20;100.00
8051;BME280;4068;42.158;24.732;2024-03-23T05:38:24;99888.28;;;3.20;100.00
8051;BME280;4068;42.158;24.732;2024-03-23T05:41:00;99891.47;;;3.27;100.00
8051;BME280;4068;42.158;24.732;2024-03-23T05:43:26;99889.09;;;3.41;100.00
8051;BME280;4068;42.158;24.732;2024-03-23T05:45:58;99889.31;;;3.56;100.00
8051;BME280;4068;42.158;24.732;2024-03-23T05:48:25;99883.66;;;3.65;100.00
8051;BME280;4068;42.158;24.732;2024-03-23T05:50:51;99886.69;;;3.75;100.00
8051;BME280;4068;42.158;24.732;2024-03-23T05:53:17;99890.28;;;3.91;100.00
8051;BME280;4068;42.158;24.732;2024-03-23T05:55:43;99889.94;;;3.99;100.00
8051;BME280;4068;42.158;24.732;2024-03-23T05:58:09;99898.31;;;3.88;100.00
8051;BME280;4068;42.158;24.732;2024-03-23T06:00:35;99898.31;;;3.88;100.00
8051;BME280;4068;42.158;24.732;2024-03-23T06:03:01;99891.91;;;3.94;100.00
8051;BME280;4068;42.158;24.732;2024-03-23T06:05:26;99886.09;;;4.06;100.00
8051;BME280;4068;42.158;24.732;2024-03-23T06:07:52;99887.91;;;4.23;100.00
8051;BME280;4068;42.158;24.732;2024-03-23T06:10:18;99890.53;;;4.41;100.00
8051;BME280;4068;42.158;24.732;2024-03-23T06:12:43;99892.03;;;4.46;100.00
8051;BME280;4068;42.158;24.732;2024-03-23T06:15:11;99877.66;;;4.54;100.00
8051;BME280;4068;42.158;24.732;2024-03-23T06:17:36;99897.75;;;4.72;100.00
8051;BME280;4068;42.158;24.732;2024-03-23T06:20:02;99889.75;;;4.91;100.00
8051;BME280;4068;42.158;24.732;2024-03-23T06:22:28;99891.75;;;5.04;98.83
8051;BME280;4068;42.158;24.732;2024-03-23T06:24:54;99880.63;;;5.16;98.29
8051;BME280;4068;42.158;24.732;2024-03-23T06:27:19;99890.47;;;5.28;97.27
8051;BME280;4068;42.158;24.732;2024-03-23T06:29:45;99884.25;;;5.13;96.66
8051;BME280;4068;42.158;24.732;2024-03-23T06:32:10;99889.03;;;5.39;96.17
8051;BME280;4068;42.158;24.732;2024-03-23T06:34:36;99894.09;;;5.59;95.77
8051;BME280;4068;42.158;24.732;2024-03-23T06:37:01;99893.59;;;5.84;94.78
8051;BME280;4068;42.158;24.732;2024-03-23T06:39:28;99880.09;;;5.91;93.33
8051;BME280;4068;42.158;24.732;2024-03-23T06:41:54;99888.91;;;5.90;92.07
8051;BME280;4068;42.158;24.732;2024-03-23T06:44:20;99886.31;;;6.05;92.19
8051;BME280;4068;42.158;24.732;2024-03-23T06:46:46;99882.72;;;6.22;91.32
8051;BME280;4068;42.158;24.732;2024-03-23T06:49:12;99887.88;;;6.40;89.70
8051;BME280;4068;42.158;24.732;2024-03-23T06:51:37;99891.50;;;6.53;89.22
8051;BME280;4068;42.158;24.732;2024-03-23T06:54:03;99895.56;;;6.59;87.39
8051;BME280;4068;42.158;24.732;2024-03-23T06:56:29;99890.66;;;6.53;88.43
8051;BME280;4068;42.158;24.732;2024-03-23T06:58:56;99887.88;;;6.40;89.07
8051;BME280;4068;42.158;24.732;2024-03-23T07:01:21;99886.22;;;6.53;89.39
8051;BME280;4068;42.158;24.732;2024-03-23T07:03:47;99879.91;;;6.86;88.32
8051;BME280;4068;42.158;24.732;2024-03-23T07:06:12;99875.03;;;7.09;87.18
8051;BME280;4068;42.158;24.732;2024-03-23T07:08:38;99871.66;;;7.21;86.15
8051;BME280;4068;42.158;24.732;2024-03-23T07:11:03;99877.75;;;7.51;85.54
8051;BME280;4068;42.158;24.732;2024-03-23T07:13:30;99871.81;;;7.62;85.01
8051;BME280;4068;42.158;24.732;2024-03-23T07:15:56;99835.19;;;7.42;84.38
8051;BME280;4068;42.158;24.732;2024-03-23T07:18:22;99871.88;;;7.74;82.59
8051;BME280;4068;42.158;24.732;2024-03-23T07:20:58;99850.94;;;7.86;83.21
8051;BME280;4068;42.158;24.732;2024-03-23T07:23:24;99862.88;;;8.19;82.88
8051;BME280;4068;42.158;24.732;2024-03-23T07:26:02;99856.00;;;8.16;79.73
8051;BME280;4068;42.158;24.732;2024-03-23T07:28:32;99860.69;;;8.53;78.70
8051;BME280;4068;42.158;24.732;2024-03-23T07:33:31;99849.38;;;8.76;77.02
8051;BME280;4068;42.158;24.732;2024-03-23T07:35:57;99837.47;;;8.84;76.13
8051;BME280;4068;42.158;24.732;2024-03-23T07:38:26;99832.69;;;8.63;76.26
8051;BME280;4068;42.158;24.732;2024-03-23T07:40:52;99845.81;;;8.77;75.69
8051;BME280;4068;42.158;24.732;2024-03-23T07:43:21;99827.63;;;8.98;75.48
8051;BME280;4068;42.158;24.732;2024-03-23T07:45:53;99835.13;;;9.05;75.20
8051;BME280;4068;42.158;24.732;2024-03-23T07:48:21;99850.13;;;9.30;74.21
8051;BME280;4068;42.158;24.732;2024-03-23T07:51:02;99838.69;;;9.42;73.42
8051;BME280;4068;42.158;24.732;2024-03-23T07:53:30;99828.81;;;9.44;73.43
8051;BME280;4068;42.158;24.732;2024-03-23T07:55:57;99826.59;;;9.51;73.23
8051;BME280;4068;42.158;24.732;2024-03-23T07:58:24;99826.16;;;9.81;73.07
8051;BME280;4068;42.158;24.732;2024-03-23T08:00:49;99836.84;;;9.93;70.21
8051;BME280;4068;42.158;24.732;2024-03-23T08:03:15;99824.41;;;10.17;69.46
8051;BME280;4068;42.158;24.732;2024-03-23T08:05:41;99826.13;;;10.18;69.28
8051;BME280;4068;42.158;24.732;2024-03-23T08:08:06;99821.75;;;10.17;68.26
8051;BME280;4068;42.158;24.732;2024-03-23T08:10:32;99795.25;;;10.17;67.19
8051;BME280;4068;42.158;24.732;2024-03-23T08:12:57;99794.78;;;10.36;67.10
8051;BME280;4068;42.158;24.732;2024-03-23T08:15:23;99812.28;;;10.50;66.72
8051;BME280;4068;42.158;24.732;2024-03-23T08:17:49;99804.94;;;10.54;65.80
8051;BME280;4068;42.158;24.732;2024-03-23T08:20:15;99772.03;;;10.57;64.90
8051;BME280;4068;42.158;24.732;2024-03-23T08:22:40;99808.72;;;10.74;64.08
8051;BME280;4068;42.158;24.732;2024-03-23T08:25:06;99800.16;;;10.70;63.96
8051;BME280;4068;42.158;24.732;2024-03-23T08:27:31;99740.31;;;10.44;63.12
8051;BME280;4068;42.158;24.732;2024-03-23T08:29:58;99786.66;;;10.85;63.01
8051;BME280;4068;42.158;24.732;2024-03-23T08:32:23;99775.81;;;10.88;63.63
8051;BME280;4068;42.158;24.732;2024-03-23T08:34:49;99764.25;;;11.00;63.65
8051;BME280;4068;42.158;24.732;2024-03-23T08:37:14;99777.25;;;11.26;63.11
8051;BME280;4068;42.158;24.732;2024-03-23T08:39:43;99776.13;;;11.51;62.49
8051;BME280;4068;42.158;24.732;2024-03-23T08:42:08;99760.28;;;11.61;61.64
8051;BME280;4068;42.158;24.732;2024-03-23T08:44:34;99764.91;;;11.91;58.29
8051;BME280;4068;42.158;24.732;2024-03-23T08:47:00;99769.38;;;11.91;58.56
8051;BME280;4068;42.158;24.732;2024-03-23T08:49:26;99763.28;;;12.12;58.22
8051;BME280;4068;42.158;24.732;2024-03-23T08:51:51;99762.84;;;12.28;58.42
8051;BME280;4068;42.158;24.732;2024-03-23T08:54:17;99747.16;;;12.46;57.42
8051;BME280;4068;42.158;24.732;2024-03-23T08:56:45;99754.13;;;12.68;56.50
8051;BME280;4068;42.158;24.732;2024-03-23T08:59:10;99755.09;;;12.67;55.35
8051;BME280;4068;42.158;24.732;2024-03-23T09:01:36;99749.47;;;12.60;55.20
8051;BME280;4068;42.158;24.732;2024-03-23T09:04:01;99730.16;;;12.68;54.08
8051;BME280;4068;42.158;24.732;2024-03-23T09:06:27;99711.69;;;12.66;54.02
8051;BME280;4068;42.158;24.732;2024-03-23T09:08:52;99743.91;;;13.04;53.40
8051;BME280;4068;42.158;24.732;2024-03-23T09:11:18;99730.91;;;13.10;53.98
8051;BME280;4068;42.158;24.732;2024-03-23T09:13:43;99733.09;;;13.36;53.34
8051;BME280;4068;42.158;24.732;2024-03-23T09:16:08;99702.75;;;13.18;51.84
8051;BME280;4068;42.158;24.732;2024-03-23T09:18:35;99723.72;;;13.42;51.10
8051;BME280;4068;42.158;24.732;2024-03-23T09:21:02;99708.56;;;13.33;51.54
8051;BME280;4068;42.158;24.732;2024-03-23T09:23:28;99707.75;;;13.52;51.30
8051;BME280;4068;42.158;24.732;2024-03-23T09:25:53;99709.31;;;13.54;51.96
8051;BME280;4068;42.158;24.732;2024-03-23T09:28:19;99698.66;;;13.54;51.72
8051;BME280;4068;42.158;24.732;2024-03-23T09:30:44;99692.91;;;13.69;51.19
8051;BME280;4068;42.158;24.732;2024-03-23T09:33:10;99695.72;;;13.67;51.33
8051;BME280;4068;42.158;24.732;2024-03-23T09:35:40;99694.31;;;13.63;51.26
8051;BME280;4068;42.158;24.732;2024-03-23T09:38:06;99683.50;;;13.64;50.51
8051;BME280;4068;42.158;24.732;2024-03-23T09:40:40;99680.72;;;13.86;51.91
8051;BME280;4068;42.158;24.732;2024-03-23T09:43:09;99682.78;;;13.92;52.15
8051;BME280;4068;42.158;24.732;2024-03-23T09:45:38;99645.47;;;13.72;52.66
8051;BME280;4068;42.158;24.732;2024-03-23T09:48:04;99666.50;;;14.05;51.53
8051;BME280;4068;42.158;24.732;2024-03-23T09:50:31;99662.44;;;14.01;50.04
8051;BME280;4068;42.158;24.732;2024-03-23T09:52:56;99663.16;;;14.03;50.32
8051;BME280;4068;42.158;24.732;2024-03-23T09:55:22;99658.78;;;14.02;49.07
8051;BME280;4068;42.158;24.732;2024-03-23T09:57:47;99661.16;;;14.14;48.46
8051;BME280;4068;42.158;24.732;2024-03-23T10:00:13;99651.31;;;14.15;48.95
8051;BME280;4068;42.158;24.732;2024-03-23T10:02:39;99648.91;;;14.22;49.33
8051;BME280;4068;42.158;24.732;2024-03-23T10:05:05;99644.03;;;14.17;49.94
8051;BME280;4068;42.158;24.732;2024-03-23T10:07:44;99635.97;;;14.37;49.18
8051;BME280;4068;42.158;24.732;2024-03-23T10:10:15;99610.97;;;14.38;49.31
8051;BME280;4068;42.158;24.732;2024-03-23T10:12:48;99631.97;;;14.50;48.84
8051;BME280;4068;42.158;24.732;2024-03-23T10:15:21;99617.13;;;14.48;48.19
8051;BME280;4068;42.158;24.732;2024-03-23T10:17:47;99599.56;;;14.45;48.72
8051;BME280;4068;42.158;24.732;2024-03-23T10:20:19;99623.66;;;14.63;49.30
8051;BME280;4068;42.158;24.732;2024-03-23T10:22:45;99602.31;;;14.63;49.43
8051;BME280;4068;42.158;24.732;2024-03-23T10:25:11;99606.09;;;14.89;49.28
8051;BME280;4068;42.158;24.732;2024-03-23T10:27:37;99609.44;;;14.73;47.88
8051;BME280;4068;42.158;24.732;2024-03-23T10:30:13;99592.97;;;14.77;46.15
8051;BME280;4068;42.158;24.732;2024-03-23T10:32:40;99577.19;;;14.84;46.09
8051;BME280;4068;42.158;24.732;2024-03-23T10:35:18;99574.25;;;15.05;45.71
8051;BME280;4068;42.158;24.732;2024-03-23T10:37:45;99564.94;;;15.09;46.33
8051;BME280;4068;42.158;24.732;2024-03-23T10:40:13;99580.13;;;15.09;45.14
8051;BME280;4068;42.158;24.732;2024-03-23T10:42:39;99550.38;;;15.04;45.07
8051;BME280;4068;42.158;24.732;2024-03-23T10:45:05;99551.88;;;15.24;45.13
8051;BME280;4068;42.158;24.732;2024-03-23T10:47:35;99568.28;;;15.47;44.71
8051;BME280;4068;42.158;24.732;2024-03-23T10:50:02;99537.66;;;15.42;43.46
8051;BME280;4068;42.158;24.732;2024-03-23T10:52:28;99542.81;;;15.61;43.07
8051;BME280;4068;42.158;24.732;2024-03-23T10:54:55;99543.22;;;15.93;41.97
8051;BME280;4068;42.158;24.732;2024-03-23T10:57:27;99554.91;;;16.18;41.55
8051;BME280;4068;42.158;24.732;2024-03-23T10:59:56;99544.03;;;16.19;40.18
8051;BME280;4068;42.158;24.732;2024-03-23T11:02:22;99546.28;;;16.32;40.07
8051;BME280;4068;42.158;24.732;2024-03-23T11:04:48;99538.53;;;16.21;40.25
8051;BME280;4068;42.158;24.732;2024-03-23T11:07:30;99525.00;;;15.88;40.57
8051;BME280;4068;42.158;24.732;2024-03-23T11:09:57;99524.66;;;15.91;40.70
8051;BME280;4068;42.158;24.732;2024-03-23T11:14:56;99516.75;;;16.08;40.64
8051;BME280;4068;42.158;24.732;2024-03-23T11:17:25;99508.31;;;16.37;41.04
8051;BME280;4068;42.158;24.732;2024-03-23T11:20:04;99500.97;;;16.47;40.62
8051;BME280;4068;42.158;24.732;2024-03-23T11:25:22;99488.94;;;16.43;39.96
8051;BME280;4068;42.158;24.732;2024-03-23T11:28:11;99482.13;;;16.57;39.36
8051;BME280;4068;42.158;24.732;2024-03-23T11:30:37;99480.13;;;16.67;38.95
8051;BME280;4068;42.158;24.732;2024-03-23T11:33:05;99461.25;;;16.69;38.56
8051;BME280;4068;42.158;24.732;2024-03-23T11:35:33;99461.56;;;16.74;39.13
8051;BME280;4068;42.158;24.732;2024-03-23T11:40:31;99444.84;;;16.80;39.29
8051;BME280;4068;42.158;24.732;2024-03-23T11:43:03;99397.47;;;16.48;39.09
8051;BME280;4068;42.158;24.732;2024-03-23T11:45:34;99441.53;;;16.95;38.12
8051;BME280;4068;42.158;24.732;2024-03-23T11:50:35;99428.63;;;17.06;37.72
8051;BME280;4068;42.158;24.732;2024-03-23T11:53:17;99414.59;;;16.96;37.95
8051;BME280;4068;42.158;24.732;2024-03-23T11:55:57;99423.09;;;17.24;38.25
8051;BME280;4068;42.158;24.732;2024-03-23T11:58:25;99405.09;;;17.50;37.62
8051;BME280;4068;42.158;24.732;2024-03-23T12:01:01;99411.84;;;17.37;36.69
8051;BME280;4068;42.158;24.732;2024-03-23T12:03:28;99410.34;;;17.35;36.97
8051;BME280;4068;42.158;24.732;2024-03-23T12:05:55;99405.81;;;17.35;36.74
8051;BME280;4068;42.158;24.732;2024-03-23T12:08:39;99385.06;;;17.37;36.39
8051;BME280;4068;42.158;24.732;2024-03-23T12:13:34;99391.84;;;17.56;35.75
8051;BME280;4068;42.158;24.732;2024-03-23T12:16:16;99390.97;;;17.64;36.12
8051;BME280;4068;42.158;24.732;2024-03-23T12:18:43;99377.34;;;17.82;35.65
8051;BME280;4068;42.158;24.732;2024-03-23T12:21:09;99378.16;;;17.91;35.16
8051;BME280;4068;42.158;24.732;2024-03-23T12:23:35;99369.72;;;18.02;35.08
8051;BME280;4068;42.158;24.732;2024-03-23T12:26:01;99362.41;;;18.19;35.38
8051;BME280;4068;42.158;24.732;2024-03-23T12:28:27;99350.00;;;18.18;35.47
8051;BME280;4068;42.158;24.732;2024-03-23T12:30:53;99333.56;;;18.21;34.78
8051;BME280;4068;42.158;24.732;2024-03-23T12:33:22;99350.28;;;18.32;33.99
8051;BME280;4068;42.158;24.732;2024-03-23T12:35:48;99341.91;;;18.03;32.87
8051;BME280;4068;42.158;24.732;2024-03-23T12:38:13;99322.75;;;18.06;33.37
8051;BME280;4068;42.158;24.732;2024-03-23T12:40:39;99350.97;;;18.25;33.10
8051;BME280;4068;42.158;24.732;2024-03-23T12:43:04;99339.94;;;18.43;32.98
8051;BME280;4068;42.158;24.732;2024-03-23T12:45:30;99340.78;;;18.21;32.90
8051;BME280;4068;42.158;24.732;2024-03-23T12:47:55;99326.00;;;18.25;32.90
8051;BME280;4068;42.158;24.732;2024-03-23T12:50:21;99327.00;;;18.24;32.71
8051;BME280;4068;42.158;24.732;2024-03-23T12:52:47;99324.84;;;18.19;32.60
8051;BME280;4068;42.158;24.732;2024-03-23T12:55:13;99320.25;;;18.28;33.25
8051;BME280;4068;42.158;24.732;2024-03-23T12:57:38;99315.25;;;18.25;33.63
8051;BME280;4068;42.158;24.732;2024-03-23T13:00:05;99307.69;;;18.28;33.28
8051;BME280;4068;42.158;24.732;2024-03-23T13:02:31;99308.75;;;18.19;32.81
8051;BME280;4068;42.158;24.732;2024-03-23T13:04:57;99309.44;;;18.21;32.37
8051;BME280;4068;42.158;24.732;2024-03-23T13:07:23;99281.69;;;18.06;32.13
8051;BME280;4068;42.158;24.732;2024-03-23T13:09:52;99297.59;;;18.31;31.89
8051;BME280;4068;42.158;24.732;2024-03-23T13:12:21;99300.53;;;18.21;31.71
8051;BME280;4068;42.158;24.732;2024-03-23T13:14:47;99292.47;;;18.21;31.56
8051;BME280;4068;42.158;24.732;2024-03-23T13:17:12;99284.84;;;18.09;31.93
8051;BME280;4068;42.158;24.732;2024-03-23T13:19:38;99275.97;;;18.09;32.67
8051;BME280;4068;42.158;24.732;2024-03-23T13:22:04;99268.50;;;18.19;33.04
8051;BME280;4068;42.158;24.732;2024-03-23T13:24:30;99269.25;;;18.28;32.87
8051;BME280;4068;42.158;24.732;2024-03-23T13:26:56;99257.69;;;18.27;33.16
8051;BME280;4068;42.158;24.732;2024-03-23T13:29:22;99268.41;;;18.51;33.49
8051;BME280;4068;42.158;24.732;2024-03-23T13:31:50;99254.03;;;18.43;33.05
8051;BME280;4068;42.158;24.732;2024-03-23T13:34:16;99270.25;;;18.50;32.61
8051;BME280;4068;42.158;24.732;2024-03-23T13:36:42;99265.06;;;18.49;32.43
8051;BME280;4068;42.158;24.732;2024-03-23T13:39:08;99258.66;;;18.50;31.23
8051;BME280;4068;42.158;24.732;2024-03-23T13:41:43;99254.34;;;18.25;30.81
8051;BME280;4068;42.158;24.732;2024-03-23T13:44:10;99255.03;;;18.27;30.75
8051;BME280;4068;42.158;24.732;2024-03-23T13:46:36;99236.47;;;18.18;31.16
8051;BME280;4068;42.158;24.732;2024-03-23T13:49:02;99248.97;;;18.25;31.80
8051;BME280;4068;42.158;24.732;2024-03-23T13:51:28;99242.03;;;18.16;32.27
8051;BME280;4068;42.158;24.732;2024-03-23T13:53:54;99221.34;;;18.02;32.65
8051;BME280;4068;42.158;24.732;2024-03-23T13:56:20;99240.91;;;18.10;32.78
8051;BME280;4068;42.158;24.732;2024-03-23T13:58:46;99235.84;;;18.16;32.99
8051;BME280;4068;42.158;24.732;2024-03-23T14:01:15;99238.34;;;18.17;32.45
8051;BME280;4068;42.158;24.732;2024-03-23T14:03:41;99229.59;;;18.00;31.96
8051;BME280;4068;42.158;24.732;2024-03-23T14:06:08;99227.53;;;18.02;32.16
8051;BME280;4068;42.158;24.732;2024-03-23T14:08:35;99224.69;;;18.04;32.50
8051;BME280;4068;42.158;24.732;2024-03-23T14:11:04;99218.06;;;18.15;32.92
8051;BME280;4068;42.158;24.732;2024-03-23T14:13:30;99220.63;;;18.08;32.53
8051;BME280;4068;42.158;24.732;2024-03-23T14:15:55;99217.66;;;18.03;32.30
8051;BME280;4068;42.158;24.732;2024-03-23T14:18:21;99216.56;;;18.12;31.73
8051;BME280;4068;42.158;24.732;2024-03-23T14:20:50;99192.53;;;17.96;31.53